Time;durP1;ratioP1;P1;durP2;ratioP2;P2;SDS_P1;SDS_P2;PMS_P1;PMS_P2;Temp;Humidity;BMP_temperature;BMP_pressure;BME280_temperature;BME280_humidity;BME280_pressure;Samples;Min_cycle;Max_cycle;Signal;HPM_P1;HPM_P2
2023/08/16 00:01:53;;;;;;;5.75;3.92;;;;;;;19.14;100.00;101735.91;5282578;28;20505;-69
2023/08/16 00:04:24;;;;;;;7.28;4.00;;;;;;;19.11;100.00;101737.03;5283943;28;20028;-69
2023/08/16 00:06:56;;;;;;;7.50;4.22;;;;;;;19.13;100.00;101734.19;5283953;28;20032;-70
2023/08/16 00:09:27;;;;;;;9.32;4.47;;;;;;;19.03;100.00;101739.66;5282285;28;20028;-70
2023/08/16 00:11:59;;;;;;;6.82;3.63;;;;;;;19.02;100.00;101745.22;5283781;28;20024;-69
2023/08/16 00:14:30;;;;;;;7.00;3.75;;;;;;;19.05;100.00;101747.63;5283023;28;20525;-70
2023/08/16 00:17:02;;;;;;;6.70;4.15;;;;;;;19.00;100.00;101740.81;5287544;28;20062;-69
2023/08/16 00:19:34;;;;;;;7.53;4.70;;;;;;;18.96;100.00;101742.09;5285734;28;20081;-70
2023/08/16 00:22:05;;;;;;;6.90;4.55;;;;;;;18.91;100.00;101746.28;5294263;28;20032;-69
2023/08/16 00:24:36;;;;;;;8.02;5.00;;;;;;;18.98;100.00;101748.25;5280615;28;20125;-70
2023/08/16 00:27:08;;;;;;;7.32;4.40;;;;;;;18.88;100.00;101742.00;5274494;28;20654;-70
2023/08/16 00:29:39;;;;;;;8.63;4.57;;;;;;;18.83;100.00;101741.63;5275954;28;20444;-69
2023/08/16 00:32:11;;;;;;;7.82;3.95;;;;;;;18.80;100.00;101736.50;5275837;28;20024;-69
2023/08/16 00:34:42;;;;;;;7.00;4.35;;;;;;;18.90;100.00;101742.72;5277610;28;20031;-70
2023/08/16 00:37:14;;;;;;;8.40;5.13;;;;;;;18.83;100.00;101740.75;5275285;28;20032;-69
2023/08/16 00:39:45;;;;;;;6.80;4.57;;;;;;;18.77;100.00;101751.16;5284177;28;20403;-70
2023/08/16 00:42:16;;;;;;;10.65;5.63;;;;;;;18.71;100.00;101743.59;5281625;28;20036;-70
2023/08/16 00:44:48;;;;;;;9.75;5.72;;;;;;;18.65;100.00;101752.31;5285017;28;20397;-69
2023/08/16 00:47:19;;;;;;;9.85;6.25;;;;;;;18.60;100.00;101755.47;5287040;28;20060;-70
2023/08/16 00:49:51;;;;;;;11.35;6.00;;;;;;;18.57;100.00;101749.50;5283809;28;20198;-70
2023/08/16 00:52:22;;;;;;;10.23;5.82;;;;;;;18.56;100.00;101762.19;5287795;28;20397;-70
2023/08/16 00:54:54;;;;;;;9.30;5.85;;;;;;;18.49;100.00;101763.75;5280926;28;20055;-70
2023/08/16 00:57:26;;;;;;;6.85;5.20;;;;;;;18.46;100.00;101758.63;5281314;28;20062;-69
2023/08/16 00:59:57;;;;;;;10.30;5.75;;;;;;;18.37;100.00;101759.50;5285171;28;20478;-70
2023/08/16 01:02:29;;;;;;;8.35;5.80;;;;;;;18.33;100.00;101766.22;5288182;28;20325;-69
2023/08/16 01:05:01;;;;;;;7.80;5.50;;;;;;;18.31;100.00;101769.06;5287160;28;20384;-70
2023/08/16 01:07:32;;;;;;;7.90;5.65;;;;;;;18.34;100.00;101773.34;5291211;28;20024;-70
2023/08/16 01:10:04;;;;;;;8.63;5.88;;;;;;;18.31;100.00;101781.72;5287700;28;20020;-70
2023/08/16 01:12:53;;;;;;;9.38;6.07;;;;;;;18.39;100.00;101781.88;5289419;28;20031;-69
2023/08/16 01:15:30;;;;;;;9.80;5.97;;;;;;;18.32;100.00;101778.88;5289162;28;20024;-70
2023/08/16 01:18:02;;;;;;;8.10;5.45;;;;;;;18.25;100.00;101775.03;5291452;28;20031;-70
2023/08/16 01:20:36;;;;;;;11.75;5.95;;;;;;;18.18;100.00;101788.28;5281871;28;20024;-70
2023/08/16 01:23:18;;;;;;;10.52;5.95;;;;;;;18.13;100.00;101792.41;5290023;28;20426;-70
2023/08/16 01:26:12;;;;;;;9.77;6.28;;;;;;;18.11;100.00;101789.00;5288909;28;20020;-70
2023/08/16 01:28:45;;;;;;;11.10;5.82;;;;;;;18.11;100.00;101803.34;5281334;28;20032;-70
2023/08/16 01:31:17;;;;;;;12.80;6.85;;;;;;;17.98;100.00;101798.25;5288900;28;20024;-69
2023/08/16 01:33:48;;;;;;;10.32;5.63;;;;;;;17.99;100.00;101802.66;5286510;28;20032;-70
2023/08/16 01:36:20;;;;;;;10.75;5.68;;;;;;;17.93;100.00;101791.56;5280844;28;20118;-70
2023/08/16 01:38:52;;;;;;;11.82;6.72;;;;;;;17.98;100.00;101802.78;5281777;28;20127;-70
2023/08/16 01:41:38;;;;;;;10.82;5.57;;;;;;;17.96;100.00;101799.38;5294083;28;20073;-70
2023/08/16 01:44:11;;;;;;;7.50;5.30;;;;;;;17.92;100.00;101795.28;5288863;28;20029;-70
2023/08/16 01:46:44;;;;;;;8.35;5.40;;;;;;;17.85;100.00;101794.97;5287147;28;20052;-70
2023/08/16 01:49:15;;;;;;;10.27;4.90;;;;;;;17.84;100.00;101790.59;5287459;28;20108;-70
2023/08/16 01:51:47;;;;;;;8.50;5.63;;;;;;;17.84;100.00;101787.88;5291513;28;20048;-70
2023/08/16 01:54:18;;;;;;;9.68;5.90;;;;;;;17.85;100.00;101791.44;5293482;28;20043;-70
2023/08/16 01:56:50;;;;;;;9.10;5.57;;;;;;;17.87;100.00;101792.13;5294150;28;20050;-70
2023/08/16 01:59:21;;;;;;;10.25;5.72;;;;;;;17.82;100.00;101790.69;5288789;28;20032;-70
2023/08/16 02:01:52;;;;;;;8.45;5.43;;;;;;;17.93;100.00;101796.97;5291150;28;20094;-70
2023/08/16 02:04:24;;;;;;;11.30;5.47;;;;;;;17.90;100.00;101794.56;5291020;28;20028;-70
2023/08/16 02:06:55;;;;;;;9.38;6.00;;;;;;;17.83;100.00;101796.94;5282886;28;20032;-70
2023/08/16 02:09:26;;;;;;;8.48;6.60;;;;;;;17.78;100.00;101793.81;5295451;28;20063;-70
2023/08/16 02:11:58;;;;;;;10.57;6.57;;;;;;;17.91;100.00;101797.13;5294981;28;20028;-69
2023/08/16 02:14:29;;;;;;;8.68;5.78;;;;;;;17.87;100.00;101805.63;5288943;28;20126;-70
2023/08/16 02:17:01;;;;;;;9.48;6.30;;;;;;;17.77;100.00;101800.19;5295376;28;20109;-70
2023/08/16 02:19:32;;;;;;;7.10;6.13;;;;;;;17.70;100.00;101789.13;5288009;28;20397;-70
2023/08/16 02:22:04;;;;;;;9.93;6.88;;;;;;;17.66;100.00;101803.91;5290016;28;20017;-70
2023/08/16 02:24:35;;;;;;;9.88;6.82;;;;;;;17.63;100.00;101802.31;5284776;28;20402;-70
2023/08/16 02:27:06;;;;;;;11.20;6.80;;;;;;;17.76;100.00;101807.44;5291798;28;20504;-70
2023/08/16 02:29:38;;;;;;;11.60;7.68;;;;;;;17.69;100.00;101802.75;5292459;28;20046;-70
2023/08/16 02:32:09;;;;;;;13.00;7.57;;;;;;;17.67;100.00;101800.19;5287774;28;20032;-70
2023/08/16 02:34:41;;;;;;;11.95;7.75;;;;;;;17.70;100.00;101804.44;5291181;28;20100;-70
2023/08/16 02:37:12;;;;;;;11.73;7.55;;;;;;;17.78;100.00;101796.53;5289743;28;20035;-70
2023/08/16 02:39:43;;;;;;;11.68;7.68;;;;;;;17.70;100.00;101799.94;5286633;28;20021;-70
2023/08/16 02:42:15;;;;;;;10.23;7.75;;;;;;;17.69;100.00;101791.97;5290547;28;20039;-70
2023/08/16 02:44:47;;;;;;;10.85;7.40;;;;;;;17.69;100.00;101790.09;5284189;28;20115;-70
2023/08/16 02:47:18;;;;;;;14.93;8.15;;;;;;;17.69;100.00;101778.47;5293278;28;20507;-70
2023/08/16 02:49:50;;;;;;;12.20;8.68;;;;;;;17.69;100.00;101783.88;5292210;28;20024;-70
2023/08/16 02:52:21;;;;;;;9.85;8.30;;;;;;;17.73;100.00;101780.72;5294798;28;20535;-69
2023/08/16 02:54:53;;;;;;;12.90;8.68;;;;;;;17.66;100.00;101778.75;5284144;28;20124;-70
2023/08/16 02:57:24;;;;;;;12.70;9.48;;;;;;;17.75;100.00;101786.84;5291996;28;20028;-70
2023/08/16 02:59:55;;;;;;;12.95;8.82;;;;;;;17.70;100.00;101791.84;5286372;28;20470;-70
2023/08/16 03:02:28;;;;;;;13.02;9.25;;;;;;;17.64;100.00;101790.53;5294172;28;20048;-70
2023/08/16 03:04:59;;;;;;;13.50;9.23;;;;;;;17.67;100.00;101792.09;5287116;28;21007;-70
2023/08/16 03:07:30;;;;;;;12.07;9.32;;;;;;;17.67;100.00;101788.56;5288229;28;20154;-70
2023/08/16 03:10:03;;;;;;;14.65;9.10;;;;;;;17.68;100.00;101796.53;5287912;28;20020;-70
2023/08/16 03:12:34;;;;;;;12.35;9.02;;;;;;;17.73;100.00;101796.09;5290385;28;20110;-70
2023/08/16 03:15:06;;;;;;;11.32;8.00;;;;;;;17.81;100.00;101799.78;5282032;28;20047;-70
2023/08/16 03:17:38;;;;;;;13.05;7.82;;;;;;;17.72;100.00;101794.38;5285147;28;20032;-70
2023/08/16 03:20:09;;;;;;;11.93;8.50;;;;;;;17.71;100.00;101796.22;5280819;28;20373;-71
2023/08/16 03:22:41;;;;;;;13.20;9.48;;;;;;;17.73;100.00;101796.09;5285348;28;20032;-70
2023/08/16 03:25:12;;;;;;;12.68;8.13;;;;;;;17.82;100.00;101806.03;5282902;28;20032;-70
2023/08/16 03:27:44;;;;;;;11.98;8.07;;;;;;;17.82;100.00;101796.09;5282204;28;20747;-70
2023/08/16 03:30:15;;;;;;;12.07;8.55;;;;;;;17.81;100.00;101786.28;5288110;28;20082;-70
2023/08/16 03:32:47;;;;;;;10.52;8.57;;;;;;;17.77;100.00;101787.53;5283142;28;20110;-70
2023/08/16 03:35:19;;;;;;;12.05;8.20;;;;;;;17.78;100.00;101783.88;5285900;28;20078;-70
2023/08/16 03:37:50;;;;;;;11.73;8.35;;;;;;;17.80;100.00;101791.84;5285680;28;20474;-70
2023/08/16 03:40:21;;;;;;;12.68;8.57;;;;;;;17.80;100.00;101798.06;5282411;28;20028;-71
2023/08/16 03:42:53;;;;;;;11.73;8.25;;;;;;;17.75;100.00;101803.03;5279075;28;20401;-70
2023/08/16 03:45:26;;;;;;;9.50;8.13;;;;;;;17.74;100.00;101804.03;5288439;28;20020;-70
2023/08/16 03:47:57;;;;;;;11.20;8.03;;;;;;;17.64;100.00;101804.03;5286860;28;20494;-70
2023/08/16 03:50:29;;;;;;;11.85;8.73;;;;;;;17.60;100.00;101799.03;5278578;28;20046;-70
2023/08/16 03:53:00;;;;;;;10.35;8.23;;;;;;;17.60;100.00;101804.44;5289495;28;20031;-70
2023/08/16 03:55:32;;;;;;;11.00;8.40;;;;;;;17.70;100.00;101812.53;5280292;28;20017;-70
2023/08/16 03:58:03;;;;;;;12.02;8.73;;;;;;;17.64;100.00;101811.25;5277932;28;20390;-70
2023/08/16 04:00:34;;;;;;;12.60;8.95;;;;;;;17.56;100.00;101821.91;5283634;28;20059;-70
2023/08/16 04:03:06;;;;;;;13.80;8.25;;;;;;;17.52;100.00;101815.94;5289639;28;20024;-70
2023/08/16 04:05:38;;;;;;;10.90;8.35;;;;;;;17.45;100.00;101820.19;5289668;28;20024;-70
2023/08/16 04:08:09;;;;;;;9.32;8.13;;;;;;;17.53;100.00;101823.06;5290248;28;20394;-70
2023/08/16 04:10:41;;;;;;;11.23;8.63;;;;;;;17.45;100.00;101822.91;5294687;28;20028;-70
2023/08/16 04:13:13;;;;;;;10.02;8.35;;;;;;;17.38;100.00;101819.88;5296893;28;20036;-71
2023/08/16 04:15:44;;;;;;;13.73;9.02;;;;;;;17.40;100.00;101825.16;5299268;28;20104;-70
2023/08/16 04:18:15;;;;;;;10.93;8.88;;;;;;;17.41;100.00;101833.09;5296548;28;20032;-70
2023/08/16 04:20:48;;;;;;;12.18;9.80;;;;;;;17.22;100.00;101823.09;5294697;28;20482;-70
2023/08/16 04:23:20;;;;;;;12.75;9.80;;;;;;;17.37;100.00;101833.50;5290608;28;20024;-70
2023/08/16 04:25:51;;;;;;;10.95;9.27;;;;;;;17.19;100.00;101830.63;5290367;28;20028;-70
2023/08/16 04:28:23;;;;;;;12.70;9.50;;;;;;;17.12;100.00;101827.59;5286728;28;20039;-70
2023/08/16 04:30:54;;;;;;;11.30;9.30;;;;;;;17.10;100.00;101823.34;5293835;28;20443;-71
2023/08/16 04:33:25;;;;;;;13.20;9.73;;;;;;;17.13;100.00;101834.72;5296271;28;20093;-70
2023/08/16 04:35:57;;;;;;;14.40;10.25;;;;;;;17.11;100.00;101831.31;5299521;28;20366;-70
2023/08/16 04:38:28;;;;;;;13.48;10.05;;;;;;;17.17;100.00;101835.28;5298673;28;20086;-70
2023/08/16 04:41:00;;;;;;;12.30;9.73;;;;;;;17.06;100.00;101817.38;5290018;28;20420;-70
2023/08/16 04:43:31;;;;;;;13.15;9.68;;;;;;;17.09;100.00;101813.56;5285672;28;20081;-70
2023/08/16 04:46:03;;;;;;;12.77;9.27;;;;;;;17.03;100.00;101815.81;5294673;28;20028;-70
2023/08/16 04:48:34;;;;;;;12.32;9.02;;;;;;;17.10;100.00;101820.66;5294778;28;20482;-70
2023/08/16 04:51:05;;;;;;;11.60;8.80;;;;;;;17.07;100.00;101818.22;5288734;28;20050;-70
2023/08/16 04:53:37;;;;;;;12.40;9.25;;;;;;;17.05;100.00;101823.75;5281901;28;20408;-70
2023/08/16 04:56:08;;;;;;;11.77;8.68;;;;;;;17.01;100.00;101825.03;5294716;28;20509;-70
2023/08/16 04:58:40;;;;;;;10.43;8.57;;;;;;;17.05;100.00;101829.16;5289063;28;20027;-70
2023/08/16 05:01:11;;;;;;;11.55;8.88;;;;;;;17.07;100.00;101834.38;5288760;28;20135;-70
2023/08/16 05:03:50;;;;;;;11.60;8.68;;;;;;;17.07;100.00;101837.09;5289561;28;20036;-71
2023/08/16 05:06:21;;;;;;;12.38;8.70;;;;;;;17.07;100.00;101832.56;5297107;28;20027;-70
2023/08/16 05:08:52;;;;;;;12.68;8.32;;;;;;;17.02;100.00;101830.25;5287229;28;20037;-70
2023/08/16 05:11:24;;;;;;;12.02;8.32;;;;;;;17.01;100.00;101833.97;5299000;28;20027;-71
2023/08/16 05:13:55;;;;;;;12.77;8.75;;;;;;;16.97;100.00;101837.91;5291702;28;20048;-70
2023/08/16 05:16:27;;;;;;;12.43;8.57;;;;;;;16.92;100.00;101842.84;5292344;28;20028;-71
2023/08/16 05:18:58;;;;;;;13.65;8.63;;;;;;;16.93;100.00;101843.69;5287590;28;20171;-70
2023/08/16 05:21:29;;;;;;;11.98;8.90;;;;;;;16.94;100.00;101838.19;5294867;28;20016;-70
2023/08/16 05:24:01;;;;;;;12.15;8.55;;;;;;;16.94;100.00;101850.81;5287819;28;21023;-70
2023/08/16 05:26:32;;;;;;;12.60;8.85;;;;;;;16.89;100.00;101855.75;5289542;28;20033;-70
2023/08/16 05:29:04;;;;;;;10.90;8.40;;;;;;;16.88;100.00;101854.03;5287645;28;20027;-70
2023/08/16 05:31:36;;;;;;;9.93;8.38;;;;;;;16.83;100.00;101852.59;5280470;28;20446;-70
2023/08/16 05:34:08;;;;;;;10.85;8.05;;;;;;;16.87;100.00;101858.56;5291315;28;20059;-71
2023/08/16 05:36:47;;;;;;;12.60;9.18;;;;;;;16.90;100.00;101862.84;5286726;28;20080;-70
2023/08/16 05:39:19;;;;;;;11.18;8.38;;;;;;;16.97;100.00;101859.50;5284987;28;20431;-70
2023/08/16 05:41:50;;;;;;;12.48;9.02;;;;;;;17.11;100.00;101865.50;5283528;28;20035;-70
2023/08/16 05:44:22;;;;;;;10.48;7.97;;;;;;;17.02;100.00;101859.91;5291282;28;20064;-70
2023/08/16 05:46:53;;;;;;;12.00;8.57;;;;;;;17.07;100.00;101864.03;5288643;28;20031;-70
2023/08/16 05:49:24;;;;;;;11.90;8.45;;;;;;;17.22;100.00;101870.78;5283216;28;20169;-70
2023/08/16 05:51:56;;;;;;;10.02;8.23;;;;;;;17.24;100.00;101876.94;5286664;28;20024;-70
2023/08/16 05:54:27;;;;;;;10.65;8.07;;;;;;;17.13;100.00;101872.47;5288088;28;20040;-70
2023/08/16 05:56:59;;;;;;;10.15;7.95;;;;;;;17.15;100.00;101880.44;5286343;28;20389;-70
2023/08/16 05:59:30;;;;;;;10.85;8.75;;;;;;;17.23;100.00;101891.38;5285886;28;20059;-70
2023/08/16 06:02:02;;;;;;;9.75;7.40;;;;;;;17.25;100.00;101889.41;5283224;28;20081;-70
2023/08/16 06:04:34;;;;;;;10.98;7.68;;;;;;;17.33;100.00;101894.97;5281653;28;20038;-70
2023/08/16 06:07:05;;;;;;;11.82;7.53;;;;;;;17.31;100.00;101885.31;5287253;28;20110;-69
2023/08/16 06:09:37;;;;;;;10.20;7.05;;;;;;;17.32;100.00;101874.38;5304016;28;20073;-70
2023/08/16 06:12:08;;;;;;;8.77;7.10;;;;;;;17.32;100.00;101873.56;5287512;28;20039;-70
2023/08/16 06:14:39;;;;;;;10.85;7.43;;;;;;;17.38;100.00;101876.53;5286413;28;20023;-70
2023/08/16 06:17:11;;;;;;;11.32;7.20;;;;;;;17.39;100.00;101870.16;5316722;28;20031;-71
2023/08/16 06:19:43;;;;;;;10.25;7.22;;;;;;;17.41;100.00;101870.88;5290503;28;20157;-70
2023/08/16 06:22:14;;;;;;;8.60;6.72;;;;;;;17.44;100.00;101873.28;5285497;28;20036;-70
2023/08/16 06:24:45;;;;;;;8.65;6.68;;;;;;;17.47;100.00;101871.31;5293538;28;20115;-70
2023/08/16 06:27:17;;;;;;;8.88;7.18;;;;;;;17.50;100.00;101873.75;5290747;28;20078;-70
2023/08/16 06:29:48;;;;;;;11.23;7.35;;;;;;;17.58;100.00;101879.28;5300213;28;20536;-70
2023/08/16 06:32:20;;;;;;;10.73;7.25;;;;;;;17.57;100.00;101870.34;5290802;28;20466;-70
2023/08/16 06:34:51;;;;;;;8.43;7.10;;;;;;;17.57;100.00;101874.91;5284976;28;20085;-71
2023/08/16 06:37:23;;;;;;;11.00;7.40;;;;;;;17.66;100.00;101887.56;5295336;28;20051;-70
2023/08/16 06:39:54;;;;;;;8.10;6.07;;;;;;;17.64;100.00;101879.59;5284726;28;20110;-70
2023/08/16 06:42:25;;;;;;;9.23;6.47;;;;;;;17.68;100.00;101879.31;5282514;28;20107;-70
2023/08/16 06:44:57;;;;;;;9.70;7.00;;;;;;;17.68;100.00;101869.41;5282536;28;20028;-71
2023/08/16 06:47:28;;;;;;;11.20;7.43;;;;;;;17.74;100.00;101874.22;5289198;28;20031;-71
2023/08/16 06:50:00;;;;;;;11.60;6.80;;;;;;;17.81;100.00;101874.50;5291334;28;20313;-70
2023/08/16 06:52:31;;;;;;;9.18;6.38;;;;;;;17.86;100.00;101869.59;5295616;28;20024;-70
2023/08/16 06:55:03;;;;;;;7.45;6.40;;;;;;;17.98;100.00;101875.72;5285638;28;20075;-71
2023/08/16 06:57:35;;;;;;;8.70;6.40;;;;;;;17.97;100.00;101882.13;5294452;28;20424;-70
2023/08/16 07:00:08;;;;;;;8.23;6.00;;;;;;;18.05;100.00;101893.06;5292113;28;20024;-70
2023/08/16 07:02:39;;;;;;;7.90;5.82;;;;;;;18.14;100.00;101892.22;5287846;28;20545;-71
2023/08/16 07:05:12;;;;;;;9.50;6.22;;;;;;;18.30;100.00;101904.31;5277521;28;20026;-71
2023/08/16 07:07:43;;;;;;;7.35;5.35;;;;;;;18.32;100.00;101896.91;5287757;28;20039;-70
2023/08/16 07:10:14;;;;;;;7.63;5.43;;;;;;;18.40;100.00;101894.34;5288393;28;20039;-70
2023/08/16 07:12:46;;;;;;;6.47;4.50;;;;;;;18.50;100.00;101888.94;5288355;28;20032;-70
2023/08/16 07:15:17;;;;;;;9.43;5.18;;;;;;;18.58;100.00;101880.94;5283729;28;20044;-71
2023/08/16 07:17:49;;;;;;;6.50;4.55;;;;;;;18.66;100.00;101877.50;5290728;28;20463;-70
2023/08/16 07:20:20;;;;;;;7.78;5.10;;;;;;;18.78;100.00;101868.25;5287455;28;20036;-71
2023/08/16 07:22:52;;;;;;;7.43;4.65;;;;;;;18.84;100.00;101874.97;5284677;28;20028;-71
2023/08/16 07:25:23;;;;;;;11.38;4.70;;;;;;;18.89;100.00;101884.34;5285168;28;20028;-70
2023/08/16 07:27:54;;;;;;;8.38;4.78;;;;;;;18.97;100.00;101891.72;5283370;28;20043;-71
2023/08/16 07:30:26;;;;;;;8.18;4.90;;;;;;;19.00;100.00;101891.41;5290048;28;20043;-71
2023/08/16 07:32:57;;;;;;;8.55;4.82;;;;;;;19.07;100.00;101895.25;5284855;28;20113;-71
2023/08/16 07:35:29;;;;;;;9.73;4.32;;;;;;;19.09;100.00;101886.97;5283003;28;20032;-71
2023/08/16 07:38:02;;;;;;;6.35;3.70;;;;;;;19.16;100.00;101888.09;5285768;28;20059;-71
2023/08/16 07:40:33;;;;;;;6.20;4.67;;;;;;;19.25;100.00;101886.34;5291610;28;20185;-71
2023/08/16 07:43:05;;;;;;;6.47;4.13;;;;;;;19.33;100.00;101895.44;5291617;28;20035;-71
2023/08/16 07:45:36;;;;;;;6.57;4.40;;;;;;;19.42;100.00;101888.25;5288000;28;20032;-70
2023/08/16 07:48:08;;;;;;;7.47;4.25;;;;;;;19.45;100.00;101901.50;5288776;28;20313;-71
2023/08/16 07:50:43;;;;;;;6.35;3.42;;;;;;;19.55;100.00;101898.75;5288416;28;20020;-70
2023/08/16 07:53:15;;;;;;;5.05;2.80;;;;;;;19.68;100.00;101901.09;5292322;28;20058;-70
2023/08/16 07:55:46;;;;;;;7.10;2.90;;;;;;;19.76;100.00;101903.94;5290060;28;20106;-71
2023/08/16 07:58:17;;;;;;;4.15;2.28;;;;;;;19.88;100.00;101896.44;5293001;28;20027;-70
2023/08/16 08:00:53;;;;;;;6.32;2.78;;;;;;;20.00;100.00;101900.66;5293073;28;20040;-70
2023/08/16 08:03:25;;;;;;;8.77;2.40;;;;;;;20.02;100.00;101895.06;5290041;28;21489;-70
2023/08/16 08:06:03;;;;;;;5.07;2.13;;;;;;;20.08;100.00;101905.28;5287694;28;20502;-70
2023/08/16 08:08:34;;;;;;;7.80;2.83;;;;;;;20.17;100.00;101913.34;5283492;28;20649;-68
2023/08/16 08:11:09;;;;;;;4.60;2.22;;;;;;;20.27;100.00;101906.97;5292761;28;20031;-68
2023/08/16 08:13:40;;;;;;;4.68;2.13;;;;;;;20.25;100.00;101909.00;5295283;28;20119;-68
2023/08/16 08:16:12;;;;;;;5.63;2.20;;;;;;;20.29;100.00;101922.09;5287731;28;20020;-68
2023/08/16 08:18:43;;;;;;;3.25;1.80;;;;;;;20.45;100.00;101912.41;5293452;28;20137;-68
2023/08/16 08:21:15;;;;;;;5.50;2.65;;;;;;;20.37;100.00;101914.03;5293406;28;20027;-68
2023/08/16 08:23:46;;;;;;;7.38;2.30;;;;;;;20.44;100.00;101911.56;5282007;28;20387;-67
2023/08/16 08:26:18;;;;;;;4.95;2.05;;;;;;;20.47;100.00;101910.38;5287748;28;20484;-71
2023/08/16 08:28:51;;;;;;;5.25;2.50;;;;;;;20.45;100.00;101907.81;5289562;28;20031;-71
2023/08/16 08:31:23;;;;;;;6.22;2.20;;;;;;;20.53;100.00;101913.31;5290837;28;20024;-71
2023/08/16 08:33:55;;;;;;;5.68;2.45;;;;;;;20.49;100.00;101914.63;5294908;28;20028;-68
2023/08/16 08:36:27;;;;;;;6.57;2.80;;;;;;;20.68;100.00;101915.50;5290192;28;20068;-69
2023/08/16 08:38:59;;;;;;;4.85;2.20;;;;;;;20.67;100.00;101911.94;5290597;28;20032;-69
2023/08/16 08:41:32;;;;;;;6.82;2.53;;;;;;;20.86;100.00;101918.16;5292353;28;20042;-69
2023/08/16 08:44:05;;;;;;;6.00;2.75;;;;;;;20.79;100.00;101926.09;5293068;28;20035;-69
2023/08/16 08:46:37;;;;;;;5.63;2.20;;;;;;;20.92;100.00;101921.13;5286887;28;20054;-69
2023/08/16 08:49:09;;;;;;;7.95;2.50;;;;;;;20.94;100.00;101913.66;5293570;28;20044;-70
2023/08/16 08:51:41;;;;;;;6.15;2.60;;;;;;;21.06;100.00;101930.53;5287529;28;20039;-69
2023/08/16 08:54:13;;;;;;;6.28;2.63;;;;;;;21.13;100.00;101919.88;5287918;28;20454;-70
2023/08/16 08:56:45;;;;;;;6.10;2.33;;;;;;;21.16;100.00;101933.13;5286166;28;20445;-69
2023/08/16 08:59:17;;;;;;;5.93;2.60;;;;;;;21.29;100.00;101925.41;5293671;28;20031;-69
2023/08/16 09:01:50;;;;;;;5.38;1.73;;;;;;;21.26;100.00;101928.44;5283102;28;20055;-69
2023/08/16 09:04:23;;;;;;;5.47;2.40;;;;;;;21.35;100.00;101932.88;5292620;28;20481;-69
2023/08/16 09:06:55;;;;;;;4.72;2.03;;;;;;;21.45;100.00;101926.53;5286770;28;20032;-69
2023/08/16 09:09:28;;;;;;;4.82;2.40;;;;;;;21.53;100.00;101923.84;5289775;28;20403;-69
2023/08/16 09:12:00;;;;;;;6.85;2.33;;;;;;;21.61;100.00;101921.19;5291427;28;20050;-69
2023/08/16 09:14:32;;;;;;;5.38;2.78;;;;;;;21.68;100.00;101927.63;5289236;27;20028;-69
2023/08/16 09:17:04;;;;;;;5.32;2.63;;;;;;;21.80;100.00;101928.19;5289851;28;20432;-70
2023/08/16 09:19:45;;;;;;;5.97;2.35;;;;;;;21.88;100.00;101933.66;5296026;28;20036;-69
2023/08/16 09:22:17;;;;;;;6.32;2.55;;;;;;;21.92;100.00;101935.03;5287068;28;20369;-69
2023/08/16 09:24:54;;;;;;;4.60;2.60;;;;;;;21.96;100.00;101927.41;5289444;28;20077;-69
2023/08/16 09:27:26;;;;;;;6.07;2.70;;;;;;;22.03;100.00;101927.56;5288726;28;20040;-69
2023/08/16 09:29:57;;;;;;;6.03;2.80;;;;;;;22.04;100.00;101930.13;5286011;28;20078;-69
2023/08/16 09:32:33;;;;;;;7.47;3.47;;;;;;;22.03;100.00;101927.56;5282780;28;20428;-69
2023/08/16 09:35:05;;;;;;;7.80;3.40;;;;;;;22.09;100.00;101927.75;5296598;28;20031;-69
2023/08/16 09:37:36;;;;;;;6.70;2.60;;;;;;;22.20;100.00;101925.72;5295593;28;20527;-70
2023/08/16 09:40:10;;;;;;;7.68;2.70;;;;;;;22.29;100.00;101922.88;5293670;28;20043;-69
2023/08/16 09:42:42;;;;;;;8.68;4.30;;;;;;;22.29;100.00;101922.03;5288778;28;20024;-69
2023/08/16 09:45:13;;;;;;;9.20;4.05;;;;;;;22.35;100.00;101924.06;5285266;28;20051;-70
2023/08/16 09:47:45;;;;;;;5.97;3.30;;;;;;;22.38;100.00;101923.75;5299393;28;20023;-70
2023/08/16 09:50:21;;;;;;;6.55;3.30;;;;;;;22.42;100.00;101922.41;5293565;28;20051;-70
2023/08/16 09:52:53;;;;;;;7.40;3.20;;;;;;;22.51;100.00;101918.66;5283500;28;20024;-70
2023/08/16 09:55:27;;;;;;;6.97;3.47;;;;;;;22.65;100.00;101919.84;5281080;28;20012;-70
2023/08/16 09:57:59;;;;;;;6.97;3.30;;;;;;;22.67;100.00;101922.41;5297377;28;20041;-69
2023/08/16 10:00:32;;;;;;;7.22;3.10;;;;;;;22.76;100.00;101912.34;5285394;28;20059;-70
2023/08/16 10:03:04;;;;;;;6.07;3.60;;;;;;;22.83;100.00;101919.63;5285057;28;20070;-70
2023/08/16 10:05:37;;;;;;;6.35;3.40;;;;;;;22.84;100.00;101915.91;5289028;28;20024;-70
2023/08/16 10:08:09;;;;;;;7.97;3.90;;;;;;;22.84;100.00;101917.75;5294842;28;20033;-70
2023/08/16 10:10:42;;;;;;;7.65;3.13;;;;;;;22.87;100.00;101918.28;5286029;28;20066;-69
2023/08/16 10:13:15;;;;;;;5.68;2.80;;;;;;;22.94;100.00;101912.16;5286729;28;20035;-70
2023/08/16 10:15:48;;;;;;;6.43;3.20;;;;;;;22.93;100.00;101911.28;5283248;28;20023;-70
2023/08/16 10:18:23;;;;;;;8.35;2.85;;;;;;;23.05;100.00;101915.41;5302561;28;20048;-70
2023/08/16 10:20:59;;;;;;;8.27;2.90;;;;;;;22.97;100.00;101918.09;5287028;28;20027;-70
2023/08/16 10:23:33;;;;;;;7.38;3.17;;;;;;;23.00;100.00;101916.91;5286076;28;20040;-70
2023/08/16 10:26:08;;;;;;;8.45;3.42;;;;;;;22.97;100.00;101922.69;5289877;28;20035;-70
2023/08/16 10:28:44;;;;;;;7.20;4.40;;;;;;;23.01;100.00;101924.03;5277450;28;20070;-70
2023/08/16 10:31:23;;;;;;;7.40;4.68;;;;;;;23.00;100.00;101915.03;5289172;28;20028;-69
2023/08/16 10:33:57;;;;;;;7.88;4.22;;;;;;;23.00;100.00;101920.47;5294116;28;20023;-70
2023/08/16 10:36:29;;;;;;;9.27;4.55;;;;;;;23.07;100.00;101912.50;5282149;28;20504;-70
2023/08/16 10:39:01;;;;;;;9.30;4.73;;;;;;;23.13;100.00;101911.81;5284602;28;20112;-70
2023/08/16 10:41:42;;;;;;;5.72;4.25;;;;;;;23.13;100.00;101916.38;5285363;28;20454;-70
2023/08/16 10:44:21;;;;;;;7.68;4.20;;;;;;;23.19;100.00;101913.81;5283654;28;20112;-70
2023/08/16 10:46:53;;;;;;;6.60;3.70;;;;;;;23.30;100.00;101907.16;5294586;28;20039;-69
2023/08/16 10:49:35;;;;;;;7.13;4.05;;;;;;;23.37;100.00;101902.69;5284727;28;20024;-69
2023/08/16 10:52:06;;;;;;;7.00;4.00;;;;;;;23.36;100.00;101900.16;5287158;28;20177;-70
2023/08/16 10:54:38;;;;;;;7.40;4.22;;;;;;;23.45;100.00;101901.81;5278968;28;20028;-70
2023/08/16 10:57:12;;;;;;;8.35;3.88;;;;;;;23.39;100.00;101906.09;5289883;28;20100;-69
2023/08/16 10:59:45;;;;;;;5.43;3.30;;;;;;;23.53;100.00;101909.97;5290614;28;20039;-70
2023/08/16 11:02:17;;;;;;;6.75;3.95;;;;;;;23.50;100.00;101910.31;5280361;28;20553;-70
2023/08/16 11:04:49;;;;;;;5.40;3.47;;;;;;;23.59;100.00;101911.97;5292951;28;20028;-70
2023/08/16 11:07:22;;;;;;;7.40;3.60;;;;;;;23.53;100.00;101901.78;5292158;28;20053;-70
2023/08/16 11:09:59;;;;;;;7.20;3.97;;;;;;;23.58;100.00;101902.09;5289777;28;20032;-70
2023/08/16 11:12:31;;;;;;;5.10;3.20;;;;;;;23.59;100.00;101905.69;5283275;28;20039;-70
2023/08/16 11:15:02;;;;;;;8.40;3.80;;;;;;;23.50;100.00;101907.59;5297831;28;20016;-70
2023/08/16 11:17:35;;;;;;;7.07;3.90;;;;;;;23.62;100.00;101900.69;5295716;28;20035;-69
2023/08/16 11:20:09;;;;;;;8.15;3.65;;;;;;;23.66;100.00;101904.78;5287001;28;20017;-69
2023/08/16 11:22:42;;;;;;;5.95;3.85;;;;;;;23.66;100.00;101902.06;5292757;28;20040;-69
2023/08/16 11:25:13;;;;;;;7.13;3.30;;;;;;;23.61;100.00;101895.47;5289500;28;20529;-68
2023/08/16 11:27:45;;;;;;;8.57;4.03;;;;;;;23.63;100.00;101901.56;5290408;28;20040;-69
2023/08/16 11:30:17;;;;;;;7.03;3.20;;;;;;;23.54;100.00;101887.13;5300994;28;20382;-69
2023/08/16 11:32:49;;;;;;;7.38;3.38;;;;;;;23.71;100.00;101897.97;5293777;28;20043;-69
2023/08/16 11:35:23;;;;;;;6.97;3.03;;;;;;;23.72;100.00;101881.44;5294170;28;20193;-69
2023/08/16 11:37:55;;;;;;;8.25;3.70;;;;;;;23.81;100.00;101885.81;5295652;28;20382;-69